Terminal Aerodrome Forecast
Issued by NWS

Home | Current Version | Previous Version | Text Only | Print | Product List | Glossary On
Versions: 1 2 3 4 5 6 7 8 9 10 11 12 13 14 15 16 17 18 19 20 21 22 23 24 25 26 27 28 29 30 31 32 33 34
000
FTUS42 KGSP 052339
TAFGMU
TAF
KGMU 052339Z 0600/0624 21008KT P6SM VCSH SCT045 BKN120
     FM060600 24004KT P6SM SCT040
     FM061800 23008KT P6SM SCT045
     FM062300 24007KT P6SM BKN050=

USA.gov is the U.S. government's official web portal to all federal, state and local government web resources and services.